Main page
METAR-TAF:

METAR-TAF

Airports :

Dijon-Bourgogne airport

Dijon, France

latitude: 47-16N, longitude: 005-05E, elevation: 222 m

Current weather observation

The report was made 19 minutes ago, at 07:00 UTC
Wind 6 kt from the South
Temperature 6°C
Humidity 93%
Pressure 1024 hPa
Visibility 10 km or more
Overcast at a height of 4300 ft

METAR: LFSD 200700Z AUTO 18006KT 9999 OVC043 06/05 Q1024

Time: 08:19 (07:19 UTC)


TAF: missing

Weather observations and forecasts of more than 4000 airports (METAR and TAF reports).

The available stations are represented by yellow and red dots on the map.

Hover mouse over dot to see the name of the station.

Then click to see weather observations and forecasts.

To change the map : click on the green buttons with a black cross to zoom in, on the green button with a dash to zoom out, or on the green arrows for adjacent maps.


METAR-TAF: